Springfield, NJ (07081)

10:05 AM EDT on March 29, 2015 (GMT -0400)
Bryant Avenue | | Change Station
CLOSE
Current Station
Personal Weather Station
Location: Springfield Township, NJ
Elevation: 161 ft
Nearby Weather Stations

Elev 161 ft 40.71 °N, 74.33 °W | Updated 5 minutes ago

Clear
Clear
36.3 °F
Feels Like 31 °F
N
6.9
Wind Variable Wind from North
Gusts 9.2 mph

Today
High -- | Low -- °F
--% Chance of Precip.
Yesterday
High -- | Low -- °F
Precip. -- in
6:46 AM 7:18 PM
Waxing Gibbous, 71% visible
Pressure 30.32 in
Visibility 10.0 miles
Clouds Clear
Windchill 31 °F
Dew Point -2 °F
Humidity 19%
Rainfall 0.00 in
Snow Depth Not available.
UV 4 out of 12
Pollen 7.30 out of 12
Air Quality Not available.
Flu Activity Not available.
METAR KLDJ 291355Z AUTO 36005KT 10SM CLR 02/M13 A3032 RMK AO2 T00211135

More Conditions Fewer Conditions

Pressure 30.32 in
Visibility 10.0 miles
Clouds Clear
Windchill 31 °F
Dew Point -2 °F
Humidity 19%
Rainfall 0.00 in
Snow Depth Not available.
UV 4 out of 12
Pollen 7.30 out of 12
Air Quality Not available.
Flu Activity Not available.
METAR KLDJ 291355Z AUTO 36005KT 10SM CLR 02/M13 A3032 RMK AO2 T00211135

More Conditions Fewer Conditions

10-Day Weather Forecast

Almanac

Astronomy

Mar. 29, 2015 Rise Set
Actual Time
Civil Twilight
Nautical Twilight
Astronomical Twilight
Moon
Length of Visible Light
Length of Day
Tomorrow will be .
, % of the Moon is Illuminated

Today's Extremes

State Highs State Lows

Community

WunderPhotos

Upload Photos

1,809,239 photos uploaded!

WunderBlogs® & News

Nearby

Air Quality

  Air Quality AQ Index Pollutant
Not available.

Snow Depth

Station Depth Elevation

Earthquake Activity

City Distance Mag. Time & Date
Minimum magnitude displayed is 2.5.

Coastal Water Temperatures

Place Temperature

Stations

Nearby Weather Stations

Station Location Temp. Windchill Dew Point Humidity Wind Precip. Elev Updated Type